sensor_id;sensor_type;location;lat;lon;timestamp;P1;durP1;ratioP1;P2;durP2;ratioP2
23952;SDS011;12163;49.316;6.092;2024-01-30T00:00:45;35.08;;;21.35;;
23952;SDS011;12163;49.316;6.092;2024-01-30T00:03:12;36.33;;;20.43;;
23952;SDS011;12163;49.316;6.092;2024-01-30T00:05:38;38.30;;;20.23;;
23952;SDS011;12163;49.316;6.092;2024-01-30T00:08:05;37.25;;;20.38;;
23952;SDS011;12163;49.316;6.092;2024-01-30T00:10:32;39.35;;;21.10;;
23952;SDS011;12163;49.316;6.092;2024-01-30T00:12:58;45.05;;;21.23;;
23952;SDS011;12163;49.316;6.092;2024-01-30T00:15:25;40.22;;;20.67;;
23952;SDS011;12163;49.316;6.092;2024-01-30T00:17:51;35.33;;;20.98;;
23952;SDS011;12163;49.316;6.092;2024-01-30T00:20:19;35.38;;;19.98;;
23952;SDS011;12163;49.316;6.092;2024-01-30T00:22:47;41.20;;;20.77;;
23952;SDS011;12163;49.316;6.092;2024-01-30T00:25:13;41.40;;;21.63;;
23952;SDS011;12163;49.316;6.092;2024-01-30T00:27:40;39.28;;;21.38;;
23952;SDS011;12163;49.316;6.092;2024-01-30T00:30:07;34.50;;;20.02;;
23952;SDS011;12163;49.316;6.092;2024-01-30T00:32:35;36.23;;;20.63;;
23952;SDS011;12163;49.316;6.092;2024-01-30T00:35:02;37.20;;;21.77;;
23952;SDS011;12163;49.316;6.092;2024-01-30T00:37:29;42.47;;;21.90;;
23952;SDS011;12163;49.316;6.092;2024-01-30T00:39:55;38.70;;;22.48;;
23952;SDS011;12163;49.316;6.092;2024-01-30T00:42:22;43.95;;;23.75;;
23952;SDS011;12163;49.316;6.092;2024-01-30T00:44:50;37.70;;;21.83;;
23952;SDS011;12163;49.316;6.092;2024-01-30T00:47:16;43.47;;;23.27;;
23952;SDS011;12163;49.316;6.092;2024-01-30T00:49:43;43.15;;;24.02;;
23952;SDS011;12163;49.316;6.092;2024-01-30T00:52:10;46.53;;;23.92;;
23952;SDS011;12163;49.316;6.092;2024-01-30T00:54:37;42.57;;;24.83;;
23952;SDS011;12163;49.316;6.092;2024-01-30T00:57:04;39.47;;;24.35;;
23952;SDS011;12163;49.316;6.092;2024-01-30T00:59:31;45.13;;;24.93;;
23952;SDS011;12163;49.316;6.092;2024-01-30T01:01:57;41.42;;;24.77;;
23952;SDS011;12163;49.316;6.092;2024-01-30T01:04:24;44.05;;;24.85;;
23952;SDS011;12163;49.316;6.092;2024-01-30T01:06:51;39.55;;;24.45;;
23952;SDS011;12163;49.316;6.092;2024-01-30T01:09:18;50.17;;;26.15;;
23952;SDS011;12163;49.316;6.092;2024-01-30T01:11:45;38.85;;;23.15;;
23952;SDS011;12163;49.316;6.092;2024-01-30T01:14:11;48.88;;;25.70;;
23952;SDS011;12163;49.316;6.092;2024-01-30T01:16:38;45.38;;;24.85;;
23952;SDS011;12163;49.316;6.092;2024-01-30T01:19:04;43.47;;;25.33;;
23952;SDS011;12163;49.316;6.092;2024-01-30T01:21:31;64.18;;;31.58;;
23952;SDS011;12163;49.316;6.092;2024-01-30T01:23:58;54.17;;;26.50;;
23952;SDS011;12163;49.316;6.092;2024-01-30T01:26:25;37.55;;;22.40;;
23952;SDS011;12163;49.316;6.092;2024-01-30T01:28:52;34.15;;;21.77;;
23952;SDS011;12163;49.316;6.092;2024-01-30T01:31:18;43.17;;;24.52;;
23952;SDS011;12163;49.316;6.092;2024-01-30T01:33:45;41.80;;;23.50;;
23952;SDS011;12163;49.316;6.092;2024-01-30T01:36:13;36.92;;;22.42;;
23952;SDS011;12163;49.316;6.092;2024-01-30T01:38:42;40.55;;;23.33;;
23952;SDS011;12163;49.316;6.092;2024-01-30T01:41:09;39.30;;;23.00;;
23952;SDS011;12163;49.316;6.092;2024-01-30T01:43:35;35.42;;;21.58;;
23952;SDS011;12163;49.316;6.092;2024-01-30T01:46:04;38.13;;;23.40;;
23952;SDS011;12163;49.316;6.092;2024-01-30T01:48:33;44.63;;;24.45;;
23952;SDS011;12163;49.316;6.092;2024-01-30T01:50:59;43.60;;;23.67;;
23952;SDS011;12163;49.316;6.092;2024-01-30T01:53:26;38.83;;;22.30;;
23952;SDS011;12163;49.316;6.092;2024-01-30T01:55:54;38.10;;;22.27;;
23952;SDS011;12163;49.316;6.092;2024-01-30T01:58:21;33.08;;;20.42;;
23952;SDS011;12163;49.316;6.092;2024-01-30T02:00:50;38.40;;;21.23;;
23952;SDS011;12163;49.316;6.092;2024-01-30T02:03:17;35.90;;;23.05;;
23952;SDS011;12163;49.316;6.092;2024-01-30T02:05:47;39.30;;;21.80;;
23952;SDS011;12163;49.316;6.092;2024-01-30T02:08:15;38.70;;;22.33;;
23952;SDS011;12163;49.316;6.092;2024-01-30T02:10:42;43.35;;;23.42;;
23952;SDS011;12163;49.316;6.092;2024-01-30T02:13:09;39.38;;;23.42;;
23952;SDS011;12163;49.316;6.092;2024-01-30T02:15:35;46.45;;;25.00;;
23952;SDS011;12163;49.316;6.092;2024-01-30T02:18:02;46.00;;;26.23;;
23952;SDS011;12163;49.316;6.092;2024-01-30T02:20:30;48.70;;;26.55;;
23952;SDS011;12163;49.316;6.092;2024-01-30T02:22:58;45.78;;;24.92;;
23952;SDS011;12163;49.316;6.092;2024-01-30T02:25:30;42.57;;;24.40;;
23952;SDS011;12163;49.316;6.092;2024-01-30T02:28:02;49.50;;;26.23;;
23952;SDS011;12163;49.316;6.092;2024-01-30T02:30:29;52.63;;;26.83;;
23952;SDS011;12163;49.316;6.092;2024-01-30T02:32:55;44.83;;;26.30;;
23952;SDS011;12163;49.316;6.092;2024-01-30T02:35:22;50.70;;;27.08;;
23952;SDS011;12163;49.316;6.092;2024-01-30T02:37:48;50.78;;;26.90;;
23952;SDS011;12163;49.316;6.092;2024-01-30T02:40:15;55.03;;;30.17;;
23952;SDS011;12163;49.316;6.092;2024-01-30T02:42:41;39.83;;;24.77;;
23952;SDS011;12163;49.316;6.092;2024-01-30T02:45:08;45.25;;;24.73;;
23952;SDS011;12163;49.316;6.092;2024-01-30T02:47:36;44.50;;;26.30;;
23952;SDS011;12163;49.316;6.092;2024-01-30T02:50:02;43.15;;;25.05;;
23952;SDS011;12163;49.316;6.092;2024-01-30T02:52:30;42.20;;;24.55;;
23952;SDS011;12163;49.316;6.092;2024-01-30T02:54:57;40.92;;;23.38;;
23952;SDS011;12163;49.316;6.092;2024-01-30T02:57:23;38.55;;;23.80;;
23952;SDS011;12163;49.316;6.092;2024-01-30T02:59:50;47.63;;;25.45;;
23952;SDS011;12163;49.316;6.092;2024-01-30T03:02:16;55.47;;;27.52;;
23952;SDS011;12163;49.316;6.092;2024-01-30T03:04:43;47.03;;;26.70;;
23952;SDS011;12163;49.316;6.092;2024-01-30T03:07:10;50.95;;;27.08;;
23952;SDS011;12163;49.316;6.092;2024-01-30T03:09:36;42.25;;;26.25;;
23952;SDS011;12163;49.316;6.092;2024-01-30T03:12:04;50.70;;;27.00;;
23952;SDS011;12163;49.316;6.092;2024-01-30T03:14:34;43.13;;;25.00;;
23952;SDS011;12163;49.316;6.092;2024-01-30T03:17:01;43.83;;;25.93;;
23952;SDS011;12163;49.316;6.092;2024-01-30T03:19:28;39.67;;;23.77;;
23952;SDS011;12163;49.316;6.092;2024-01-30T03:21:54;42.42;;;23.60;;
23952;SDS011;12163;49.316;6.092;2024-01-30T03:24:21;40.85;;;23.42;;
23952;SDS011;12163;49.316;6.092;2024-01-30T03:26:48;41.58;;;23.60;;
23952;SDS011;12163;49.316;6.092;2024-01-30T03:29:14;37.33;;;22.10;;
23952;SDS011;12163;49.316;6.092;2024-01-30T03:31:41;37.42;;;23.27;;
23952;SDS011;12163;49.316;6.092;2024-01-30T03:34:08;44.50;;;24.20;;
23952;SDS011;12163;49.316;6.092;2024-01-30T03:36:35;36.77;;;22.50;;
23952;SDS011;12163;49.316;6.092;2024-01-30T03:39:01;40.10;;;22.95;;
23952;SDS011;12163;49.316;6.092;2024-01-30T03:41:28;42.90;;;24.05;;
23952;SDS011;12163;49.316;6.092;2024-01-30T03:43:55;39.40;;;22.98;;
23952;SDS011;12163;49.316;6.092;2024-01-30T03:46:21;39.33;;;23.60;;
23952;SDS011;12163;49.316;6.092;2024-01-30T03:48:48;44.58;;;24.10;;
23952;SDS011;12163;49.316;6.092;2024-01-30T03:51:15;46.35;;;24.40;;
23952;SDS011;12163;49.316;6.092;2024-01-30T03:53:42;45.42;;;25.13;;
23952;SDS011;12163;49.316;6.092;2024-01-30T03:56:09;36.47;;;23.52;;
23952;SDS011;12163;49.316;6.092;2024-01-30T03:58:36;39.08;;;23.65;;
23952;SDS011;12163;49.316;6.092;2024-01-30T04:01:02;40.28;;;22.98;;
23952;SDS011;12163;49.316;6.092;2024-01-30T04:03:30;46.22;;;24.83;;
23952;SDS011;12163;49.316;6.092;2024-01-30T04:05:56;47.78;;;24.13;;
23952;SDS011;12163;49.316;6.092;2024-01-30T04:08:23;42.67;;;23.85;;
23952;SDS011;12163;49.316;6.092;2024-01-30T04:10:50;48.65;;;26.70;;
23952;SDS011;12163;49.316;6.092;2024-01-30T04:13:16;54.58;;;28.77;;
23952;SDS011;12163;49.316;6.092;2024-01-30T04:15:43;49.17;;;27.52;;
23952;SDS011;12163;49.316;6.092;2024-01-30T04:18:09;45.10;;;25.13;;
23952;SDS011;12163;49.316;6.092;2024-01-30T04:20:36;58.72;;;29.90;;
23952;SDS011;12163;49.316;6.092;2024-01-30T04:23:03;52.65;;;28.77;;
23952;SDS011;12163;49.316;6.092;2024-01-30T04:25:29;49.53;;;28.33;;
23952;SDS011;12163;49.316;6.092;2024-01-30T04:27:56;56.90;;;29.17;;
23952;SDS011;12163;49.316;6.092;2024-01-30T04:30:22;57.67;;;31.33;;
23952;SDS011;12163;49.316;6.092;2024-01-30T04:32:49;54.08;;;30.35;;
23952;SDS011;12163;49.316;6.092;2024-01-30T04:35:16;52.92;;;29.10;;
23952;SDS011;12163;49.316;6.092;2024-01-30T04:37:43;57.50;;;29.65;;
23952;SDS011;12163;49.316;6.092;2024-01-30T04:40:09;53.28;;;28.33;;
23952;SDS011;12163;49.316;6.092;2024-01-30T04:42:36;45.80;;;27.30;;
23952;SDS011;12163;49.316;6.092;2024-01-30T04:45:03;53.75;;;30.45;;
23952;SDS011;12163;49.316;6.092;2024-01-30T04:47:30;54.85;;;30.27;;
23952;SDS011;12163;49.316;6.092;2024-01-30T04:49:56;50.20;;;28.23;;
23952;SDS011;12163;49.316;6.092;2024-01-30T04:52:23;50.53;;;30.20;;
23952;SDS011;12163;49.316;6.092;2024-01-30T04:54:49;48.40;;;28.63;;
23952;SDS011;12163;49.316;6.092;2024-01-30T04:57:16;50.22;;;28.50;;
23952;SDS011;12163;49.316;6.092;2024-01-30T04:59:43;55.37;;;30.33;;
23952;SDS011;12163;49.316;6.092;2024-01-30T05:02:09;51.42;;;28.17;;
23952;SDS011;12163;49.316;6.092;2024-01-30T05:04:36;47.38;;;27.92;;
23952;SDS011;12163;49.316;6.092;2024-01-30T05:07:03;48.10;;;27.05;;
23952;SDS011;12163;49.316;6.092;2024-01-30T05:09:30;46.03;;;26.85;;
23952;SDS011;12163;49.316;6.092;2024-01-30T05:11:56;53.00;;;29.38;;
23952;SDS011;12163;49.316;6.092;2024-01-30T05:14:24;48.20;;;27.88;;
23952;SDS011;12163;49.316;6.092;2024-01-30T05:16:51;53.88;;;29.23;;
23952;SDS011;12163;49.316;6.092;2024-01-30T05:19:17;46.83;;;28.30;;
23952;SDS011;12163;49.316;6.092;2024-01-30T05:21:44;46.78;;;27.75;;
23952;SDS011;12163;49.316;6.092;2024-01-30T05:24:11;47.47;;;27.17;;
23952;SDS011;12163;49.316;6.092;2024-01-30T05:26:37;52.53;;;29.55;;
23952;SDS011;12163;49.316;6.092;2024-01-30T05:29:04;45.55;;;27.70;;
23952;SDS011;12163;49.316;6.092;2024-01-30T05:31:32;48.63;;;27.25;;
23952;SDS011;12163;49.316;6.092;2024-01-30T05:33:59;51.30;;;29.42;;
23952;SDS011;12163;49.316;6.092;2024-01-30T05:36:26;53.95;;;29.77;;
23952;SDS011;12163;49.316;6.092;2024-01-30T05:38:52;49.88;;;27.77;;
23952;SDS011;12163;49.316;6.092;2024-01-30T05:41:19;49.78;;;27.17;;
23952;SDS011;12163;49.316;6.092;2024-01-30T05:43:47;40.10;;;24.95;;
23952;SDS011;12163;49.316;6.092;2024-01-30T05:46:14;47.58;;;27.27;;
23952;SDS011;12163;49.316;6.092;2024-01-30T05:48:40;49.92;;;28.02;;
23952;SDS011;12163;49.316;6.092;2024-01-30T05:51:07;59.53;;;30.17;;
23952;SDS011;12163;49.316;6.092;2024-01-30T05:53:34;44.73;;;27.40;;
23952;SDS011;12163;49.316;6.092;2024-01-30T05:56:01;51.40;;;29.15;;
23952;SDS011;12163;49.316;6.092;2024-01-30T05:58:29;47.75;;;30.17;;
23952;SDS011;12163;49.316;6.092;2024-01-30T06:00:57;40.60;;;25.15;;
23952;SDS011;12163;49.316;6.092;2024-01-30T06:03:24;18.38;;;11.25;;
23952;SDS011;12163;49.316;6.092;2024-01-30T06:05:51;36.50;;;21.45;;
23952;SDS011;12163;49.316;6.092;2024-01-30T06:08:18;40.75;;;22.58;;
23952;SDS011;12163;49.316;6.092;2024-01-30T06:10:45;42.72;;;24.00;;
23952;SDS011;12163;49.316;6.092;2024-01-30T06:13:11;39.83;;;23.05;;
23952;SDS011;12163;49.316;6.092;2024-01-30T06:15:38;45.83;;;26.70;;
23952;SDS011;12163;49.316;6.092;2024-01-30T06:18:04;49.13;;;27.60;;
23952;SDS011;12163;49.316;6.092;2024-01-30T06:20:31;43.35;;;24.98;;
23952;SDS011;12163;49.316;6.092;2024-01-30T06:22:58;43.17;;;24.63;;
23952;SDS011;12163;49.316;6.092;2024-01-30T06:25:24;40.03;;;24.65;;
23952;SDS011;12163;49.316;6.092;2024-01-30T06:27:51;43.90;;;25.13;;
23952;SDS011;12163;49.316;6.092;2024-01-30T06:30:18;39.05;;;23.65;;
23952;SDS011;12163;49.316;6.092;2024-01-30T06:32:44;41.88;;;25.15;;
23952;SDS011;12163;49.316;6.092;2024-01-30T06:35:11;38.90;;;24.55;;
23952;SDS011;12163;49.316;6.092;2024-01-30T06:37:38;51.25;;;28.27;;
23952;SDS011;12163;49.316;6.092;2024-01-30T06:40:05;41.05;;;26.02;;
23952;SDS011;12163;49.316;6.092;2024-01-30T06:42:32;42.28;;;26.42;;
23952;SDS011;12163;49.316;6.092;2024-01-30T06:44:59;46.97;;;27.00;;
23952;SDS011;12163;49.316;6.092;2024-01-30T06:47:25;42.47;;;27.98;;
23952;SDS011;12163;49.316;6.092;2024-01-30T06:49:52;42.80;;;26.00;;
23952;SDS011;12163;49.316;6.092;2024-01-30T06:52:19;40.85;;;25.00;;
23952;SDS011;12163;49.316;6.092;2024-01-30T06:54:45;37.97;;;24.23;;
23952;SDS011;12163;49.316;6.092;2024-01-30T06:57:12;42.97;;;26.25;;
23952;SDS011;12163;49.316;6.092;2024-01-30T06:59:40;51.47;;;29.48;;
23952;SDS011;12163;49.316;6.092;2024-01-30T07:02:09;39.17;;;24.87;;
23952;SDS011;12163;49.316;6.092;2024-01-30T07:04:37;42.00;;;26.58;;
23952;SDS011;12163;49.316;6.092;2024-01-30T07:07:05;41.40;;;26.60;;
23952;SDS011;12163;49.316;6.092;2024-01-30T07:09:38;36.80;;;24.55;;
23952;SDS011;12163;49.316;6.092;2024-01-30T07:12:05;40.72;;;26.05;;
23952;SDS011;12163;49.316;6.092;2024-01-30T07:14:32;40.37;;;24.87;;
23952;SDS011;12163;49.316;6.092;2024-01-30T07:16:59;40.42;;;24.05;;
23952;SDS011;12163;49.316;6.092;2024-01-30T07:19:26;42.33;;;25.67;;
23952;SDS011;12163;49.316;6.092;2024-01-30T07:21:52;38.43;;;24.80;;
23952;SDS011;12163;49.316;6.092;2024-01-30T07:24:19;35.88;;;23.73;;
23952;SDS011;12163;49.316;6.092;2024-01-30T07:26:45;42.17;;;25.20;;
23952;SDS011;12163;49.316;6.092;2024-01-30T07:29:12;39.80;;;24.77;;
23952;SDS011;12163;49.316;6.092;2024-01-30T07:31:39;35.03;;;24.00;;
23952;SDS011;12163;49.316;6.092;2024-01-30T07:34:06;38.03;;;24.17;;
23952;SDS011;12163;49.316;6.092;2024-01-30T07:36:33;33.75;;;22.40;;
23952;SDS011;12163;49.316;6.092;2024-01-30T07:39:00;36.85;;;23.27;;
23952;SDS011;12163;49.316;6.092;2024-01-30T07:41:26;39.50;;;22.90;;
23952;SDS011;12163;49.316;6.092;2024-01-30T07:43:53;35.65;;;21.88;;
23952;SDS011;12163;49.316;6.092;2024-01-30T07:46:20;35.35;;;22.98;;
23952;SDS011;12163;49.316;6.092;2024-01-30T07:48:46;36.25;;;22.90;;
23952;SDS011;12163;49.316;6.092;2024-01-30T07:51:15;36.00;;;23.23;;
23952;SDS011;12163;49.316;6.092;2024-01-30T07:53:41;38.07;;;24.60;;
23952;SDS011;12163;49.316;6.092;2024-01-30T07:56:08;39.60;;;25.30;;
23952;SDS011;12163;49.316;6.092;2024-01-30T07:58:34;39.50;;;23.90;;
23952;SDS011;12163;49.316;6.092;2024-01-30T08:01:01;36.15;;;23.30;;
23952;SDS011;12163;49.316;6.092;2024-01-30T08:03:28;45.65;;;29.60;;
23952;SDS011;12163;49.316;6.092;2024-01-30T08:05:55;43.28;;;26.95;;
23952;SDS011;12163;49.316;6.092;2024-01-30T08:08:21;44.80;;;29.20;;
23952;SDS011;12163;49.316;6.092;2024-01-30T08:10:48;43.15;;;27.80;;
23952;SDS011;12163;49.316;6.092;2024-01-30T08:13:16;43.85;;;28.50;;
23952;SDS011;12163;49.316;6.092;2024-01-30T08:15:42;42.70;;;27.95;;
23952;SDS011;12163;49.316;6.092;2024-01-30T08:18:09;42.92;;;27.75;;
23952;SDS011;12163;49.316;6.092;2024-01-30T08:20:36;45.85;;;29.60;;
23952;SDS011;12163;49.316;6.092;2024-01-30T08:23:02;45.55;;;29.95;;
23952;SDS011;12163;49.316;6.092;2024-01-30T08:25:29;41.38;;;26.20;;
23952;SDS011;12163;49.316;6.092;2024-01-30T08:27:56;44.45;;;26.35;;
23952;SDS011;12163;49.316;6.092;2024-01-30T08:30:24;42.30;;;25.83;;
23952;SDS011;12163;49.316;6.092;2024-01-30T08:32:50;40.13;;;23.90;;
23952;SDS011;12163;49.316;6.092;2024-01-30T08:35:18;42.58;;;24.58;;
23952;SDS011;12163;49.316;6.092;2024-01-30T08:37:45;42.85;;;24.90;;
23952;SDS011;12163;49.316;6.092;2024-01-30T08:40:11;44.58;;;26.60;;
23952;SDS011;12163;49.316;6.092;2024-01-30T08:42:38;41.10;;;25.50;;
23952;SDS011;12163;49.316;6.092;2024-01-30T08:45:05;44.63;;;26.92;;
23952;SDS011;12163;49.316;6.092;2024-01-30T08:47:32;45.95;;;28.17;;
23952;SDS011;12163;49.316;6.092;2024-01-30T08:49:59;40.30;;;25.38;;
23952;SDS011;12163;49.316;6.092;2024-01-30T08:52:26;43.83;;;27.75;;
23952;SDS011;12163;49.316;6.092;2024-01-30T08:54:53;38.85;;;25.23;;
23952;SDS011;12163;49.316;6.092;2024-01-30T08:57:20;54.92;;;31.33;;
23952;SDS011;12163;49.316;6.092;2024-01-30T08:59:47;54.53;;;32.40;;
23952;SDS011;12163;49.316;6.092;2024-01-30T09:02:14;42.92;;;27.20;;
23952;SDS011;12163;49.316;6.092;2024-01-30T09:04:42;53.17;;;30.13;;
23952;SDS011;12163;49.316;6.092;2024-01-30T09:07:09;46.30;;;28.25;;
23952;SDS011;12163;49.316;6.092;2024-01-30T09:09:40;35.08;;;24.23;;
23952;SDS011;12163;49.316;6.092;2024-01-30T09:12:07;41.08;;;25.52;;
23952;SDS011;12163;49.316;6.092;2024-01-30T09:14:38;41.80;;;24.77;;
23952;SDS011;12163;49.316;6.092;2024-01-30T09:17:06;39.70;;;24.30;;
23952;SDS011;12163;49.316;6.092;2024-01-30T09:19:33;40.05;;;24.23;;
23952;SDS011;12163;49.316;6.092;2024-01-30T09:22:00;36.70;;;23.27;;
23952;SDS011;12163;49.316;6.092;2024-01-30T09:24:27;37.80;;;21.73;;
23952;SDS011;12163;49.316;6.092;2024-01-30T09:26:54;35.27;;;19.77;;
23952;SDS011;12163;49.316;6.092;2024-01-30T09:29:21;36.53;;;22.42;;
23952;SDS011;12163;49.316;6.092;2024-01-30T09:31:48;47.88;;;31.13;;
23952;SDS011;12163;49.316;6.092;2024-01-30T09:34:14;46.45;;;29.90;;
23952;SDS011;12163;49.316;6.092;2024-01-30T09:36:41;47.13;;;31.02;;
23952;SDS011;12163;49.316;6.092;2024-01-30T09:39:07;45.53;;;28.65;;
23952;SDS011;12163;49.316;6.092;2024-01-30T09:41:37;43.28;;;26.27;;
23952;SDS011;12163;49.316;6.092;2024-01-30T09:44:20;40.40;;;24.15;;
23952;SDS011;12163;49.316;6.092;2024-01-30T09:46:49;41.38;;;23.90;;
23952;SDS011;12163;49.316;6.092;2024-01-30T09:49:17;35.20;;;23.35;;
23952;SDS011;12163;49.316;6.092;2024-01-30T09:51:46;47.95;;;28.23;;
23952;SDS011;12163;49.316;6.092;2024-01-30T09:54:14;38.88;;;24.95;;
23952;SDS011;12163;49.316;6.092;2024-01-30T09:56:42;37.78;;;22.80;;
23952;SDS011;12163;49.316;6.092;2024-01-30T09:59:08;35.75;;;21.48;;
23952;SDS011;12163;49.316;6.092;2024-01-30T10:01:35;40.08;;;24.90;;
23952;SDS011;12163;49.316;6.092;2024-01-30T10:04:03;34.70;;;22.60;;
23952;SDS011;12163;49.316;6.092;2024-01-30T10:06:31;38.22;;;23.33;;
23952;SDS011;12163;49.316;6.092;2024-01-30T10:08:57;36.75;;;23.90;;
23952;SDS011;12163;49.316;6.092;2024-01-30T10:11:24;32.50;;;20.77;;
23952;SDS011;12163;49.316;6.092;2024-01-30T10:13:53;29.52;;;19.38;;
23952;SDS011;12163;49.316;6.092;2024-01-30T10:16:20;30.80;;;18.00;;
23952;SDS011;12163;49.316;6.092;2024-01-30T10:18:47;29.20;;;18.08;;
23952;SDS011;12163;49.316;6.092;2024-01-30T10:21:13;30.80;;;18.10;;
23952;SDS011;12163;49.316;6.092;2024-01-30T10:23:40;28.13;;;16.70;;
23952;SDS011;12163;49.316;6.092;2024-01-30T10:26:07;30.27;;;17.85;;
23952;SDS011;12163;49.316;6.092;2024-01-30T10:28:33;29.77;;;17.60;;
23952;SDS011;12163;49.316;6.092;2024-01-30T10:31:00;32.72;;;18.23;;
23952;SDS011;12163;49.316;6.092;2024-01-30T10:33:31;28.92;;;16.02;;
23952;SDS011;12163;49.316;6.092;2024-01-30T10:36:02;30.05;;;16.85;;
23952;SDS011;12163;49.316;6.092;2024-01-30T10:38:31;28.58;;;16.30;;
23952;SDS011;12163;49.316;6.092;2024-01-30T10:40:59;28.40;;;16.60;;
23952;SDS011;12163;49.316;6.092;2024-01-30T10:43:36;26.55;;;16.02;;
23952;SDS011;12163;49.316;6.092;2024-01-30T10:46:26;30.00;;;16.45;;
23952;SDS011;12163;49.316;6.092;2024-01-30T10:48:58;27.80;;;18.13;;
23952;SDS011;12163;49.316;6.092;2024-01-30T10:51:28;32.35;;;18.27;;
23952;SDS011;12163;49.316;6.092;2024-01-30T10:53:55;32.60;;;18.50;;
23952;SDS011;12163;49.316;6.092;2024-01-30T10:56:24;29.75;;;18.70;;
23952;SDS011;12163;49.316;6.092;2024-01-30T10:58:52;30.30;;;19.20;;
23952;SDS011;12163;49.316;6.092;2024-01-30T11:01:22;34.95;;;20.17;;
23952;SDS011;12163;49.316;6.092;2024-01-30T11:03:50;36.40;;;19.45;;
23952;SDS011;12163;49.316;6.092;2024-01-30T11:06:18;29.67;;;17.55;;
23952;SDS011;12163;49.316;6.092;2024-01-30T11:09:10;32.00;;;19.02;;
23952;SDS011;12163;49.316;6.092;2024-01-30T11:11:48;31.30;;;16.40;;
23952;SDS011;12163;49.316;6.092;2024-01-30T11:14:24;30.10;;;16.13;;
23952;SDS011;12163;49.316;6.092;2024-01-30T11:16:52;31.00;;;17.67;;
23952;SDS011;12163;49.316;6.092;2024-01-30T11:19:25;28.55;;;17.38;;
23952;SDS011;12163;49.316;6.092;2024-01-30T11:21:53;27.65;;;16.15;;
23952;SDS011;12163;49.316;6.092;2024-01-30T11:24:20;27.98;;;16.25;;
23952;SDS011;12163;49.316;6.092;2024-01-30T11:26:55;26.25;;;14.90;;
23952;SDS011;12163;49.316;6.092;2024-01-30T11:29:27;27.45;;;16.73;;
23952;SDS011;12163;49.316;6.092;2024-01-30T11:31:55;29.13;;;17.15;;
23952;SDS011;12163;49.316;6.092;2024-01-30T11:34:22;26.85;;;13.70;;
23952;SDS011;12163;49.316;6.092;2024-01-30T11:36:55;24.53;;;14.00;;
23952;SDS011;12163;49.316;6.092;2024-01-30T11:39:25;27.00;;;14.73;;
23952;SDS011;12163;49.316;6.092;2024-01-30T11:41:53;26.05;;;16.27;;
23952;SDS011;12163;49.316;6.092;2024-01-30T11:44:21;27.20;;;15.57;;
23952;SDS011;12163;49.316;6.092;2024-01-30T11:46:48;25.38;;;14.20;;
23952;SDS011;12163;49.316;6.092;2024-01-30T11:49:15;27.27;;;14.25;;
23952;SDS011;12163;49.316;6.092;2024-01-30T11:51:47;23.90;;;13.32;;
23952;SDS011;12163;49.316;6.092;2024-01-30T11:54:15;24.95;;;13.15;;
23952;SDS011;12163;49.316;6.092;2024-01-30T11:56:42;27.55;;;13.05;;
23952;SDS011;12163;49.316;6.092;2024-01-30T11:59:09;19.58;;;12.90;;
23952;SDS011;12163;49.316;6.092;2024-01-30T12:01:36;26.55;;;13.05;;
23952;SDS011;12163;49.316;6.092;2024-01-30T12:04:03;24.38;;;13.52;;
23952;SDS011;12163;49.316;6.092;2024-01-30T12:06:35;24.23;;;13.80;;
23952;SDS011;12163;49.316;6.092;2024-01-30T12:09:02;26.50;;;14.02;;
23952;SDS011;12163;49.316;6.092;2024-01-30T12:11:46;27.05;;;14.57;;
23952;SDS011;12163;49.316;6.092;2024-01-30T12:14:14;29.90;;;15.23;;
23952;SDS011;12163;49.316;6.092;2024-01-30T12:16:42;25.67;;;14.40;;
23952;SDS011;12163;49.316;6.092;2024-01-30T12:19:09;24.67;;;14.27;;
23952;SDS011;12163;49.316;6.092;2024-01-30T12:21:37;24.93;;;14.37;;
23952;SDS011;12163;49.316;6.092;2024-01-30T12:24:04;24.42;;;13.10;;
23952;SDS011;12163;49.316;6.092;2024-01-30T12:26:33;23.17;;;13.05;;
23952;SDS011;12163;49.316;6.092;2024-01-30T12:29:00;20.45;;;11.88;;
23952;SDS011;12163;49.316;6.092;2024-01-30T12:31:28;25.85;;;14.10;;
23952;SDS011;12163;49.316;6.092;2024-01-30T12:33:55;24.08;;;12.32;;
23952;SDS011;12163;49.316;6.092;2024-01-30T12:36:22;21.67;;;11.77;;
23952;SDS011;12163;49.316;6.092;2024-01-30T12:38:49;19.95;;;11.27;;
23952;SDS011;12163;49.316;6.092;2024-01-30T12:41:16;17.77;;;10.93;;
23952;SDS011;12163;49.316;6.092;2024-01-30T12:43:43;33.63;;;18.13;;
23952;SDS011;12163;49.316;6.092;2024-01-30T12:46:10;33.40;;;18.40;;
23952;SDS011;12163;49.316;6.092;2024-01-30T12:48:36;34.00;;;18.77;;
23952;SDS011;12163;49.316;6.092;2024-01-30T12:51:03;29.17;;;16.20;;
23952;SDS011;12163;49.316;6.092;2024-01-30T12:53:30;29.20;;;17.33;;
23952;SDS011;12163;49.316;6.092;2024-01-30T12:55:57;29.70;;;16.08;;
23952;SDS011;12163;49.316;6.092;2024-01-30T12:58:24;34.15;;;17.55;;
23952;SDS011;12163;49.316;6.092;2024-01-30T13:00:51;33.73;;;19.50;;
23952;SDS011;12163;49.316;6.092;2024-01-30T13:03:18;24.20;;;13.45;;
23952;SDS011;12163;49.316;6.092;2024-01-30T13:05:45;42.88;;;21.60;;
23952;SDS011;12163;49.316;6.092;2024-01-30T13:08:11;34.65;;;16.45;;
23952;SDS011;12163;49.316;6.092;2024-01-30T13:10:38;32.13;;;15.43;;
23952;SDS011;12163;49.316;6.092;2024-01-30T13:13:04;35.60;;;18.17;;
23952;SDS011;12163;49.316;6.092;2024-01-30T13:15:39;33.45;;;17.88;;
23952;SDS011;12163;49.316;6.092;2024-01-30T13:18:06;32.53;;;15.23;;
23952;SDS011;12163;49.316;6.092;2024-01-30T13:20:32;23.42;;;13.65;;
23952;SDS011;12163;49.316;6.092;2024-01-30T13:22:59;20.77;;;10.60;;
23952;SDS011;12163;49.316;6.092;2024-01-30T13:25:26;21.40;;;10.90;;
23952;SDS011;12163;49.316;6.092;2024-01-30T13:27:53;19.20;;;10.05;;
23952;SDS011;12163;49.316;6.092;2024-01-30T13:30:19;17.88;;;8.15;;
23952;SDS011;12163;49.316;6.092;2024-01-30T13:32:46;20.73;;;11.57;;
23952;SDS011;12163;49.316;6.092;2024-01-30T13:35:12;11.90;;;6.53;;
23952;SDS011;12163;49.316;6.092;2024-01-30T13:37:39;10.48;;;6.00;;
23952;SDS011;12163;49.316;6.092;2024-01-30T13:40:08;11.25;;;5.63;;
23952;SDS011;12163;49.316;6.092;2024-01-30T13:42:39;11.25;;;4.90;;
23952;SDS011;12163;49.316;6.092;2024-01-30T13:45:06;9.30;;;4.55;;
23952;SDS011;12163;49.316;6.092;2024-01-30T13:47:36;11.95;;;4.97;;
23952;SDS011;12163;49.316;6.092;2024-01-30T13:50:02;10.25;;;5.00;;
23952;SDS011;12163;49.316;6.092;2024-01-30T13:52:31;13.32;;;5.28;;
23952;SDS011;12163;49.316;6.092;2024-01-30T13:55:09;13.15;;;5.20;;
23952;SDS011;12163;49.316;6.092;2024-01-30T13:57:36;11.80;;;4.97;;
23952;SDS011;12163;49.316;6.092;2024-01-30T14:00:03;10.73;;;5.22;;
23952;SDS011;12163;49.316;6.092;2024-01-30T14:02:33;12.73;;;4.90;;
23952;SDS011;12163;49.316;6.092;2024-01-30T14:05:00;8.48;;;4.82;;
23952;SDS011;12163;49.316;6.092;2024-01-30T14:07:27;11.18;;;5.00;;
23952;SDS011;12163;49.316;6.092;2024-01-30T14:09:54;11.27;;;5.47;;
23952;SDS011;12163;49.316;6.092;2024-01-30T14:12:20;8.80;;;4.85;;
23952;SDS011;12163;49.316;6.092;2024-01-30T14:14:47;12.55;;;5.30;;
23952;SDS011;12163;49.316;6.092;2024-01-30T14:17:13;10.13;;;4.63;;
23952;SDS011;12163;49.316;6.092;2024-01-30T14:19:40;11.15;;;4.82;;
23952;SDS011;12163;49.316;6.092;2024-01-30T14:22:06;9.97;;;5.00;;
23952;SDS011;12163;49.316;6.092;2024-01-30T14:24:33;14.10;;;5.25;;